sensor_id;sensor_type;location;lat;lon;timestamp;pressure;altitude;pressure_sealevel;temperature;humidity
16821;BME280;8527;49.740;6.604;2023-08-12T00:02:13;99987.06;;;22.58;100.00
16821;BME280;8527;49.740;6.604;2023-08-12T00:07:13;99998.03;;;22.39;99.76
16821;BME280;8527;49.740;6.604;2023-08-12T00:12:25;100010.81;;;22.44;100.00
16821;BME280;8527;49.740;6.604;2023-08-12T00:17:26;100018.25;;;22.48;100.00
16821;BME280;8527;49.740;6.604;2023-08-12T00:22:25;100017.28;;;22.43;99.63
16821;BME280;8527;49.740;6.604;2023-08-12T00:27:29;100007.44;;;22.48;100.00
16821;BME280;8527;49.740;6.604;2023-08-12T00:32:27;100004.72;;;22.48;100.00
16821;BME280;8527;49.740;6.604;2023-08-12T00:37:26;100006.00;;;22.46;100.00
16821;BME280;8527;49.740;6.604;2023-08-12T00:42:24;99999.47;;;22.30;100.00
16821;BME280;8527;49.740;6.604;2023-08-12T00:47:26;99997.03;;;22.28;100.00
16821;BME280;8527;49.740;6.604;2023-08-12T00:52:26;99996.16;;;22.40;100.00
16821;BME280;8527;49.740;6.604;2023-08-12T00:57:24;99975.81;;;22.37;100.00
16821;BME280;8527;49.740;6.604;2023-08-12T01:02:25;99963.25;;;22.31;100.00
16821;BME280;8527;49.740;6.604;2023-08-12T01:12:25;99971.34;;;22.14;100.00
16821;BME280;8527;49.740;6.604;2023-08-12T01:17:29;99970.63;;;22.06;100.00
16821;BME280;8527;49.740;6.604;2023-08-12T01:22:34;99965.16;;;21.89;100.00
16821;BME280;8527;49.740;6.604;2023-08-12T01:27:38;99957.31;;;21.76;100.00
16821;BME280;8527;49.740;6.604;2023-08-12T01:32:40;99953.00;;;21.63;100.00
16821;BME280;8527;49.740;6.604;2023-08-12T01:37:40;99960.47;;;21.85;100.00
16821;BME280;8527;49.740;6.604;2023-08-12T01:42:43;99970.97;;;21.81;100.00
16821;BME280;8527;49.740;6.604;2023-08-12T01:47:43;99969.06;;;21.82;100.00
16821;BME280;8527;49.740;6.604;2023-08-12T01:52:42;99965.19;;;21.77;100.00
16821;BME280;8527;49.740;6.604;2023-08-12T01:57:43;99962.38;;;21.72;100.00
16821;BME280;8527;49.740;6.604;2023-08-12T02:02:43;99963.78;;;21.63;100.00
16821;BME280;8527;49.740;6.604;2023-08-12T02:07:43;99959.44;;;21.62;100.00
16821;BME280;8527;49.740;6.604;2023-08-12T02:12:44;99945.13;;;21.61;100.00
16821;BME280;8527;49.740;6.604;2023-08-12T02:17:43;99940.69;;;21.55;100.00
16821;BME280;8527;49.740;6.604;2023-08-12T02:22:41;99934.69;;;21.41;100.00
16821;BME280;8527;49.740;6.604;2023-08-12T02:27:39;99927.06;;;21.38;100.00
16821;BME280;8527;49.740;6.604;2023-08-12T02:32:40;99922.75;;;21.37;100.00
16821;BME280;8527;49.740;6.604;2023-08-12T02:37:39;99916.06;;;21.28;100.00
16821;BME280;8527;49.740;6.604;2023-08-12T02:42:38;99897.50;;;21.31;100.00
16821;BME280;8527;49.740;6.604;2023-08-12T02:47:36;99898.69;;;21.24;100.00
16821;BME280;8527;49.740;6.604;2023-08-12T02:52:38;99897.41;;;21.14;100.00
16821;BME280;8527;49.740;6.604;2023-08-12T02:57:36;99887.66;;;21.01;100.00
16821;BME280;8527;49.740;6.604;2023-08-12T03:02:34;99891.19;;;21.02;100.00
16821;BME280;8527;49.740;6.604;2023-08-12T03:07:33;99881.44;;;20.89;100.00
16821;BME280;8527;49.740;6.604;2023-08-12T03:12:34;99867.25;;;20.82;100.00
16821;BME280;8527;49.740;6.604;2023-08-12T03:17:33;99867.78;;;20.72;99.86
16821;BME280;8527;49.740;6.604;2023-08-12T03:22:31;99869.31;;;20.67;100.00
16821;BME280;8527;49.740;6.604;2023-08-12T03:27:30;99857.97;;;20.65;99.99
16821;BME280;8527;49.740;6.604;2023-08-12T03:32:31;99851.16;;;20.75;100.00
16821;BME280;8527;49.740;6.604;2023-08-12T03:37:29;99845.16;;;20.73;100.00
16821;BME280;8527;49.740;6.604;2023-08-12T03:42:28;99842.16;;;20.81;100.00
16821;BME280;8527;49.740;6.604;2023-08-12T03:47:26;99842.13;;;20.69;100.00
16821;BME280;8527;49.740;6.604;2023-08-12T03:52:27;99849.28;;;20.75;100.00
16821;BME280;8527;49.740;6.604;2023-08-12T03:57:26;99843.88;;;20.75;100.00
16821;BME280;8527;49.740;6.604;2023-08-12T04:02:24;99831.81;;;20.66;100.00
16821;BME280;8527;49.740;6.604;2023-08-12T04:07:22;99842.59;;;20.66;100.00
16821;BME280;8527;49.740;6.604;2023-08-12T04:12:24;99831.81;;;20.78;100.00
16821;BME280;8527;49.740;6.604;2023-08-12T04:17:23;99826.66;;;20.76;100.00
16821;BME280;8527;49.740;6.604;2023-08-12T04:22:21;99824.78;;;20.77;100.00
16821;BME280;8527;49.740;6.604;2023-08-12T04:27:19;99834.84;;;20.70;100.00
16821;BME280;8527;49.740;6.604;2023-08-12T04:32:20;99835.81;;;20.63;100.00
16821;BME280;8527;49.740;6.604;2023-08-12T04:37:19;99828.41;;;20.59;100.00
16821;BME280;8527;49.740;6.604;2023-08-12T04:42:19;99826.41;;;20.66;100.00
16821;BME280;8527;49.740;6.604;2023-08-12T04:47:20;99843.88;;;20.75;100.00
16821;BME280;8527;49.740;6.604;2023-08-12T04:52:18;99846.59;;;20.75;100.00
16821;BME280;8527;49.740;6.604;2023-08-12T04:57:17;99833.59;;;20.84;100.00
16821;BME280;8527;49.740;6.604;2023-08-12T05:02:21;99842.03;;;20.76;100.00
16821;BME280;8527;49.740;6.604;2023-08-12T05:07:19;99843.66;;;20.77;100.00
16821;BME280;8527;49.740;6.604;2023-08-12T05:12:17;99849.06;;;20.77;100.00
16821;BME280;8527;49.740;6.604;2023-08-12T05:17:16;99853.88;;;20.75;100.00
16821;BME280;8527;49.740;6.604;2023-08-12T05:22:17;99866.75;;;20.73;100.00
16821;BME280;8527;49.740;6.604;2023-08-12T05:27:15;99856.78;;;20.73;100.00
16821;BME280;8527;49.740;6.604;2023-08-12T05:32:14;99858.34;;;20.81;100.00
16821;BME280;8527;49.740;6.604;2023-08-12T05:37:12;99854.78;;;20.69;100.00
16821;BME280;8527;49.740;6.604;2023-08-12T05:42:13;99842.16;;;20.81;100.00
16821;BME280;8527;49.740;6.604;2023-08-12T05:47:11;99846.59;;;20.75;100.00
16821;BME280;8527;49.740;6.604;2023-08-12T05:52:10;99843.34;;;20.97;100.00
16821;BME280;8527;49.740;6.604;2023-08-12T05:57:08;99846.50;;;21.06;100.00
16821;BME280;8527;49.740;6.604;2023-08-12T06:02:09;99844.16;;;21.10;100.00
16821;BME280;8527;49.740;6.604;2023-08-12T06:07:07;99845.66;;;21.17;100.00
16821;BME280;8527;49.740;6.604;2023-08-12T06:12:06;99853.19;;;21.15;100.00
16821;BME280;8527;49.740;6.604;2023-08-12T06:17:05;99874.06;;;21.20;100.00
16821;BME280;8527;49.740;6.604;2023-08-12T06:22:09;99881.78;;;21.28;100.00
16821;BME280;8527;49.740;6.604;2023-08-12T06:27:07;99880.13;;;21.39;100.00
16821;BME280;8527;49.740;6.604;2023-08-12T06:32:09;99888.31;;;21.56;100.00
16821;BME280;8527;49.740;6.604;2023-08-12T06:37:10;99884.06;;;21.72;100.00
16821;BME280;8527;49.740;6.604;2023-08-12T06:42:09;99883.31;;;21.89;100.00
16821;BME280;8527;49.740;6.604;2023-08-12T06:47:07;99882.06;;;21.80;100.00
16821;BME280;8527;49.740;6.604;2023-08-12T06:52:11;99875.16;;;22.01;100.00
16821;BME280;8527;49.740;6.604;2023-08-12T06:57:10;99872.41;;;22.13;100.00
16821;BME280;8527;49.740;6.604;2023-08-12T07:02:08;99879.72;;;22.29;100.00
16821;BME280;8527;49.740;6.604;2023-08-12T07:07:07;99871.09;;;22.15;100.00
16821;BME280;8527;49.740;6.604;2023-08-12T07:12:08;99869.31;;;22.21;100.00
16821;BME280;8527;49.740;6.604;2023-08-12T07:17:06;99875.41;;;22.45;100.00
16821;BME280;8527;49.740;6.604;2023-08-12T07:22:05;99873.66;;;22.51;100.00
16821;BME280;8527;49.740;6.604;2023-08-12T07:27:03;99863.81;;;22.62;100.00
16821;BME280;8527;49.740;6.604;2023-08-12T07:32:05;99863.88;;;22.84;100.00
16821;BME280;8527;49.740;6.604;2023-08-12T07:37:03;99869.97;;;23.14;100.00
16821;BME280;8527;49.740;6.604;2023-08-12T07:42:02;99869.59;;;23.44;98.70
16821;BME280;8527;49.740;6.604;2023-08-12T07:47:00;99864.84;;;23.79;96.49
16821;BME280;8527;49.740;6.604;2023-08-12T07:52:02;99873.69;;;23.47;96.84
16821;BME280;8527;49.740;6.604;2023-08-12T07:57:00;99862.41;;;23.16;99.16
16821;BME280;8527;49.740;6.604;2023-08-12T08:01:59;99866.69;;;23.29;98.32
16821;BME280;8527;49.740;6.604;2023-08-12T08:06:57;99857.06;;;23.38;98.80
16821;BME280;8527;49.740;6.604;2023-08-12T08:11:58;99842.94;;;23.36;98.48
16821;BME280;8527;49.740;6.604;2023-08-12T08:16:56;99843.13;;;23.29;97.50
16821;BME280;8527;49.740;6.604;2023-08-12T08:21:55;99852.59;;;23.27;97.54
16821;BME280;8527;49.740;6.604;2023-08-12T08:26:53;99855.69;;;23.36;97.62
16821;BME280;8527;49.740;6.604;2023-08-12T08:31:54;99856.94;;;23.50;97.67
16821;BME280;8527;49.740;6.604;2023-08-12T08:36:53;99858.53;;;23.46;96.64
16821;BME280;8527;49.740;6.604;2023-08-12T08:41:53;99841.78;;;23.49;96.97
16821;BME280;8527;49.740;6.604;2023-08-12T08:46:55;99865.06;;;23.72;97.80
16821;BME280;8527;49.740;6.604;2023-08-12T08:51:54;99857.78;;;23.78;95.34
16821;BME280;8527;49.740;6.604;2023-08-12T08:56:52;99863.84;;;24.40;92.73
16821;BME280;8527;49.740;6.604;2023-08-12T09:01:55;99860.41;;;25.31;88.66
16821;BME280;8527;49.740;6.604;2023-08-12T09:06:55;99871.22;;;25.21;88.80
16821;BME280;8527;49.740;6.604;2023-08-12T09:11:55;99882.09;;;25.26;88.70
16821;BME280;8527;49.740;6.604;2023-08-12T09:17:00;99885.88;;;25.20;88.16
16821;BME280;8527;49.740;6.604;2023-08-12T09:21:58;99885.88;;;24.77;87.74
16821;BME280;8527;49.740;6.604;2023-08-12T09:26:56;99883.78;;;24.84;88.73
16821;BME280;8527;49.740;6.604;2023-08-12T09:32:05;99875.97;;;24.60;88.64
16821;BME280;8527;49.740;6.604;2023-08-12T09:37:04;99862.41;;;24.65;89.31
16821;BME280;8527;49.740;6.604;2023-08-12T09:42:05;99866.03;;;24.76;88.13
16821;BME280;8527;49.740;6.604;2023-08-12T09:47:09;99863.28;;;24.71;87.28
16821;BME280;8527;49.740;6.604;2023-08-12T09:52:08;99863.63;;;24.47;90.07
16821;BME280;8527;49.740;6.604;2023-08-12T09:57:08;99870.38;;;24.44;91.85
16821;BME280;8527;49.740;6.604;2023-08-12T10:02:18;99866.56;;;24.40;90.74
16821;BME280;8527;49.740;6.604;2023-08-12T10:07:20;99851.56;;;24.27;91.92
16821;BME280;8527;49.740;6.604;2023-08-12T10:12:19;99853.22;;;24.34;92.74
16821;BME280;8527;49.740;6.604;2023-08-12T10:17:21;99839.25;;;23.92;95.87
16821;BME280;8527;49.740;6.604;2023-08-12T10:22:21;99819.19;;;24.15;96.33
16821;BME280;8527;49.740;6.604;2023-08-12T10:27:20;99801.25;;;24.09;100.00
16821;BME280;8527;49.740;6.604;2023-08-12T10:32:21;99819.25;;;23.98;97.62
16821;BME280;8527;49.740;6.604;2023-08-12T10:37:20;99830.22;;;24.09;97.54
16821;BME280;8527;49.740;6.604;2023-08-12T10:42:39;99822.28;;;24.29;100.00
16821;BME280;8527;49.740;6.604;2023-08-12T10:47:47;99810.69;;;24.39;97.63
16821;BME280;8527;49.740;6.604;2023-08-12T10:52:51;99785.53;;;24.87;99.14
16821;BME280;8527;49.740;6.604;2023-08-12T10:57:51;99817.41;;;25.12;93.15
16821;BME280;8527;49.740;6.604;2023-08-12T11:02:56;99820.66;;;25.04;91.34
16821;BME280;8527;49.740;6.604;2023-08-12T11:07:57;99832.13;;;25.27;89.32
16821;BME280;8527;49.740;6.604;2023-08-12T11:13:03;99829.63;;;24.72;92.34
16821;BME280;8527;49.740;6.604;2023-08-12T11:18:06;99824.09;;;24.94;90.17
16821;BME280;8527;49.740;6.604;2023-08-12T11:23:08;99820.97;;;24.75;88.08
16821;BME280;8527;49.740;6.604;2023-08-12T11:28:07;99817.56;;;24.90;87.96
16821;BME280;8527;49.740;6.604;2023-08-12T11:33:09;99823.19;;;24.45;87.94
16821;BME280;8527;49.740;6.604;2023-08-12T11:38:09;99813.81;;;24.21;87.12
16821;BME280;8527;49.740;6.604;2023-08-12T11:43:11;99791.94;;;24.33;86.94
16821;BME280;8527;49.740;6.604;2023-08-12T11:48:12;99804.13;;;24.68;85.08
16821;BME280;8527;49.740;6.604;2023-08-12T11:53:10;99803.50;;;24.98;85.55
16821;BME280;8527;49.740;6.604;2023-08-12T11:58:09;99803.78;;;25.02;82.91
16821;BME280;8527;49.740;6.604;2023-08-12T12:03:11;99801.59;;;24.94;80.78
16821;BME280;8527;49.740;6.604;2023-08-12T12:08:10;99806.00;;;25.05;81.32
16821;BME280;8527;49.740;6.604;2023-08-12T12:13:08;99794.66;;;24.76;81.72
16821;BME280;8527;49.740;6.604;2023-08-12T12:18:13;99811.63;;;24.93;80.99
16821;BME280;8527;49.740;6.604;2023-08-12T12:23:12;99817.59;;;24.95;80.58
16821;BME280;8527;49.740;6.604;2023-08-12T12:28:10;99806.41;;;24.81;79.64
16821;BME280;8527;49.740;6.604;2023-08-12T12:33:17;99818.19;;;25.03;81.70
16821;BME280;8527;49.740;6.604;2023-08-12T12:38:15;99828.50;;;25.06;80.44
16821;BME280;8527;49.740;6.604;2023-08-12T12:43:14;99833.13;;;25.05;80.08
16821;BME280;8527;49.740;6.604;2023-08-12T12:48:15;99836.16;;;25.14;81.55
16821;BME280;8527;49.740;6.604;2023-08-12T12:53:13;99834.53;;;25.18;84.62
16821;BME280;8527;49.740;6.604;2023-08-12T12:58:12;99842.44;;;25.20;84.50
16821;BME280;8527;49.740;6.604;2023-08-12T13:03:11;99829.34;;;25.11;86.11
16821;BME280;8527;49.740;6.604;2023-08-12T13:08:12;99833.59;;;24.92;86.87
16821;BME280;8527;49.740;6.604;2023-08-12T13:13:13;99837.19;;;25.08;86.37
16821;BME280;8527;49.740;6.604;2023-08-12T13:18:16;99842.91;;;25.06;86.39
16821;BME280;8527;49.740;6.604;2023-08-12T13:23:17;99841.16;;;24.84;88.04
16821;BME280;8527;49.740;6.604;2023-08-12T13:28:15;99835.72;;;24.84;88.39
16821;BME280;8527;49.740;6.604;2023-08-12T13:33:14;99837.66;;;24.89;87.19
16821;BME280;8527;49.740;6.604;2023-08-12T13:38:18;99838.19;;;24.86;86.89
16821;BME280;8527;49.740;6.604;2023-08-12T13:43:17;99840.06;;;24.85;86.73
16821;BME280;8527;49.740;6.604;2023-08-12T13:48:17;99835.41;;;24.81;87.78
16821;BME280;8527;49.740;6.604;2023-08-12T13:53:18;99841.03;;;24.74;88.29
16821;BME280;8527;49.740;6.604;2023-08-12T13:58:18;99836.69;;;24.68;87.45
16821;BME280;8527;49.740;6.604;2023-08-12T14:03:17;99832.25;;;24.56;88.39
16821;BME280;8527;49.740;6.604;2023-08-12T14:08:18;99853.41;;;24.54;88.77
16821;BME280;8527;49.740;6.604;2023-08-12T14:13:19;99871.09;;;24.29;93.56
16821;BME280;8527;49.740;6.604;2023-08-12T14:18:20;99867.41;;;23.64;96.15
16821;BME280;8527;49.740;6.604;2023-08-12T14:23:21;99861.34;;;23.79;95.23
16821;BME280;8527;49.740;6.604;2023-08-12T14:28:19;99852.44;;;23.83;92.90
16821;BME280;8527;49.740;6.604;2023-08-12T14:33:18;99862.66;;;23.76;93.73
16821;BME280;8527;49.740;6.604;2023-08-12T14:38:23;99851.97;;;23.92;93.61
16821;BME280;8527;49.740;6.604;2023-08-12T14:43:22;99848.13;;;23.60;96.63
16821;BME280;8527;49.740;6.604;2023-08-12T14:48:21;99845.22;;;23.44;97.21
16821;BME280;8527;49.740;6.604;2023-08-12T14:53:25;99852.09;;;23.13;99.18
16821;BME280;8527;49.740;6.604;2023-08-12T14:58:23;99846.69;;;23.30;98.25
16821;BME280;8527;49.740;6.604;2023-08-12T15:03:22;99849.03;;;23.26;99.65
16821;BME280;8527;49.740;6.604;2023-08-12T15:08:20;99834.78;;;23.31;100.00
16821;BME280;8527;49.740;6.604;2023-08-12T15:13:21;99829.03;;;23.27;99.74
16821;BME280;8527;49.740;6.604;2023-08-12T15:18:20;99827.28;;;23.38;100.00
16821;BME280;8527;49.740;6.604;2023-08-12T15:23:19;99820.16;;;23.54;100.00
16821;BME280;8527;49.740;6.604;2023-08-12T15:28:20;99818.91;;;23.40;100.00
16821;BME280;8527;49.740;6.604;2023-08-12T15:33:19;99817.59;;;23.70;100.00
16821;BME280;8527;49.740;6.604;2023-08-12T15:38:20;99813.53;;;23.95;100.00
16821;BME280;8527;49.740;6.604;2023-08-12T15:43:21;99816.03;;;23.74;100.00
16821;BME280;8527;49.740;6.604;2023-08-12T15:48:20;99817.16;;;23.78;100.00
16821;BME280;8527;49.740;6.604;2023-08-12T15:53:18;99814.50;;;23.56;100.00
16821;BME280;8527;49.740;6.604;2023-08-12T15:58:17;99823.81;;;23.65;100.00
16821;BME280;8527;49.740;6.604;2023-08-12T16:03:19;99820.63;;;23.73;100.00
16821;BME280;8527;49.740;6.604;2023-08-12T16:08:17;99812.00;;;23.77;99.78
16821;BME280;8527;49.740;6.604;2023-08-12T16:13:15;99809.88;;;23.79;99.82
16821;BME280;8527;49.740;6.604;2023-08-12T16:18:14;99816.19;;;23.89;99.59
16821;BME280;8527;49.740;6.604;2023-08-12T16:23:15;99815.09;;;23.85;98.44
16821;BME280;8527;49.740;6.604;2023-08-12T16:28:13;99813.28;;;23.46;98.89
16821;BME280;8527;49.740;6.604;2023-08-12T16:33:11;99814.69;;;23.49;99.61
16821;BME280;8527;49.740;6.604;2023-08-12T16:38:10;99800.88;;;23.73;99.13
16821;BME280;8527;49.740;6.604;2023-08-12T16:43:11;99818.78;;;23.79;100.00
16821;BME280;8527;49.740;6.604;2023-08-12T16:48:09;99823.69;;;23.82;100.00
16821;BME280;8527;49.740;6.604;2023-08-12T16:53:11;99834.53;;;23.82;100.00
16821;BME280;8527;49.740;6.604;2023-08-12T16:58:12;99848.88;;;23.55;100.00
16821;BME280;8527;49.740;6.604;2023-08-12T17:03:10;99841.97;;;23.25;100.00
16821;BME280;8527;49.740;6.604;2023-08-12T17:08:08;99835.09;;;23.35;97.17
16821;BME280;8527;49.740;6.604;2023-08-12T17:13:07;99838.50;;;23.08;96.11
16821;BME280;8527;49.740;6.604;2023-08-12T17:18:11;99840.63;;;23.05;97.61
16821;BME280;8527;49.740;6.604;2023-08-12T17:23:09;99840.69;;;23.28;96.67
16821;BME280;8527;49.740;6.604;2023-08-12T17:28:08;99841.34;;;23.18;97.08
16821;BME280;8527;49.740;6.604;2023-08-12T17:33:06;99841.94;;;23.20;95.91
16821;BME280;8527;49.740;6.604;2023-08-12T17:38:07;99842.94;;;22.97;98.42
16821;BME280;8527;49.740;6.604;2023-08-12T17:43:05;99852.47;;;22.82;98.78
16821;BME280;8527;49.740;6.604;2023-08-12T17:48:05;99850.25;;;22.96;96.08
16821;BME280;8527;49.740;6.604;2023-08-12T17:53:03;99844.03;;;22.96;98.94
16821;BME280;8527;49.740;6.604;2023-08-12T17:58:04;99844.88;;;22.79;99.37
16821;BME280;8527;49.740;6.604;2023-08-12T18:03:03;99855.84;;;22.72;99.70
16821;BME280;8527;49.740;6.604;2023-08-12T18:08:02;99866.69;;;22.55;100.00
16821;BME280;8527;49.740;6.604;2023-08-12T18:13:04;99870.25;;;22.44;100.00
16821;BME280;8527;49.740;6.604;2023-08-12T18:18:02;99879.91;;;22.40;99.52
16821;BME280;8527;49.740;6.604;2023-08-12T18:23:04;99882.84;;;22.38;99.16
16821;BME280;8527;49.740;6.604;2023-08-12T18:28:05;99882.84;;;22.38;99.41
16821;BME280;8527;49.740;6.604;2023-08-12T18:33:04;99890.78;;;22.28;100.00
16821;BME280;8527;49.740;6.604;2023-08-12T18:38:03;99895.22;;;22.34;100.00
16821;BME280;8527;49.740;6.604;2023-08-12T18:43:11;99893.75;;;22.26;99.14
16821;BME280;8527;49.740;6.604;2023-08-12T18:48:10;99902.81;;;22.20;99.91
16821;BME280;8527;49.740;6.604;2023-08-12T18:53:08;99900.75;;;22.10;100.00
16821;BME280;8527;49.740;6.604;2023-08-12T18:58:07;99900.97;;;22.09;100.00
16821;BME280;8527;49.740;6.604;2023-08-12T19:03:11;99905.56;;;22.08;100.00
16821;BME280;8527;49.740;6.604;2023-08-12T19:08:09;99906.50;;;22.02;100.00
16821;BME280;8527;49.740;6.604;2023-08-12T19:13:09;99901.94;;;22.02;100.00
16821;BME280;8527;49.740;6.604;2023-08-12T19:18:19;99900.09;;;21.91;100.00
16821;BME280;8527;49.740;6.604;2023-08-12T19:23:17;99900.09;;;21.91;100.00
16821;BME280;8527;49.740;6.604;2023-08-12T19:28:16;99898.22;;;21.91;100.00
16821;BME280;8527;49.740;6.604;2023-08-12T19:33:14;99904.72;;;21.78;100.00
16821;BME280;8527;49.740;6.604;2023-08-12T19:38:15;99915.69;;;21.48;100.00
16821;BME280;8527;49.740;6.604;2023-08-12T19:43:14;99928.34;;;21.59;100.00
16821;BME280;8527;49.740;6.604;2023-08-12T19:48:12;99925.75;;;21.53;100.00
16821;BME280;8527;49.740;6.604;2023-08-12T19:53:12;99930.00;;;21.36;100.00
16821;BME280;8527;49.740;6.604;2023-08-12T19:58:16;99933.53;;;21.25;100.00
16821;BME280;8527;49.740;6.604;2023-08-12T20:03:14;99936.09;;;21.32;100.00
16821;BME280;8527;49.740;6.604;2023-08-12T20:08:13;99939.19;;;21.24;100.00
16821;BME280;8527;49.740;6.604;2023-08-12T20:13:11;99941.97;;;21.17;100.00
16821;BME280;8527;49.740;6.604;2023-08-12T20:18:12;99944.31;;;21.13;100.00
16821;BME280;8527;49.740;6.604;2023-08-12T20:23:11;99947.13;;;21.06;100.00
16821;BME280;8527;49.740;6.604;2023-08-12T20:28:09;99955.41;;;20.81;100.00
16821;BME280;8527;49.740;6.604;2023-08-12T20:33:08;99958.94;;;20.82;100.00
16821;BME280;8527;49.740;6.604;2023-08-12T20:38:11;99957.50;;;20.79;100.00
16821;BME280;8527;49.740;6.604;2023-08-12T20:43:13;99951.81;;;20.87;100.00
16821;BME280;8527;49.740;6.604;2023-08-12T20:48:11;99953.63;;;20.75;100.00
16821;BME280;8527;49.740;6.604;2023-08-12T20:53:13;99956.19;;;20.70;100.00
16821;BME280;8527;49.740;6.604;2023-08-12T20:58:13;99959.91;;;20.57;100.00
16821;BME280;8527;49.740;6.604;2023-08-12T21:03:11;99956.75;;;20.60;100.00
16821;BME280;8527;49.740;6.604;2023-08-12T21:08:13;99959.41;;;20.48;100.00
16821;BME280;8527;49.740;6.604;2023-08-12T21:13:11;99954.72;;;20.43;100.00
16821;BME280;8527;49.740;6.604;2023-08-12T21:18:10;99961.19;;;20.23;100.00
16821;BME280;8527;49.740;6.604;2023-08-12T21:23:08;99964.81;;;20.17;100.00
16821;BME280;8527;49.740;6.604;2023-08-12T21:28:09;99970.94;;;20.06;100.00
16821;BME280;8527;49.740;6.604;2023-08-12T21:33:07;99972.22;;;20.03;100.00
16821;BME280;8527;49.740;6.604;2023-08-12T21:38:06;99969.38;;;19.98;100.00
16821;BME280;8527;49.740;6.604;2023-08-12T21:43:04;99962.56;;;19.95;100.00
16821;BME280;8527;49.740;6.604;2023-08-12T21:48:06;99960.13;;;19.87;100.00
16821;BME280;8527;49.740;6.604;2023-08-12T21:53:04;99959.28;;;19.93;100.00
16821;BME280;8527;49.740;6.604;2023-08-12T21:58:03;99957.69;;;19.86;100.00
16821;BME280;8527;49.740;6.604;2023-08-12T22:03:02;99961.66;;;19.83;100.00
16821;BME280;8527;49.740;6.604;2023-08-12T22:08:03;99952.47;;;19.72;100.00
16821;BME280;8527;49.740;6.604;2023-08-12T22:13:01;99965.00;;;19.60;100.00
16821;BME280;8527;49.740;6.604;2023-08-12T22:18:00;99943.47;;;19.60;100.00
16821;BME280;8527;49.740;6.604;2023-08-12T22:22:59;99951.91;;;19.45;100.00
16821;BME280;8527;49.740;6.604;2023-08-12T22:28:00;99947.19;;;19.59;100.00
16821;BME280;8527;49.740;6.604;2023-08-12T22:32:58;99944.56;;;19.52;100.00
16821;BME280;8527;49.740;6.604;2023-08-12T22:37:57;99953.69;;;19.51;100.00
16821;BME280;8527;49.740;6.604;2023-08-12T22:42:55;99941.38;;;19.62;100.00
16821;BME280;8527;49.740;6.604;2023-08-12T22:47:56;99943.25;;;19.43;100.00
16821;BME280;8527;49.740;6.604;2023-08-12T22:52:55;99938.28;;;19.39;100.00
16821;BME280;8527;49.740;6.604;2023-08-12T22:57:56;99942.66;;;19.40;100.00
16821;BME280;8527;49.740;6.604;2023-08-12T23:02:57;99933.53;;;19.42;100.00
16821;BME280;8527;49.740;6.604;2023-08-12T23:07:56;99928.34;;;19.40;100.00
16821;BME280;8527;49.740;6.604;2023-08-12T23:12:54;99932.41;;;19.49;100.00
16821;BME280;8527;49.740;6.604;2023-08-12T23:17:58;99928.06;;;19.48;100.00
16821;BME280;8527;49.740;6.604;2023-08-12T23:22:57;99942.53;;;19.29;100.00
16821;BME280;8527;49.740;6.604;2023-08-12T23:27:55;99948.75;;;19.29;100.00
16821;BME280;8527;49.740;6.604;2023-08-12T23:32:54;99936.34;;;19.28;100.00
16821;BME280;8527;49.740;6.604;2023-08-12T23:37:55;99943.50;;;19.16;100.00
16821;BME280;8527;49.740;6.604;2023-08-12T23:42:53;99936.69;;;19.13;100.00
16821;BME280;8527;49.740;6.604;2023-08-12T23:47:51;99935.69;;;19.07;100.00
16821;BME280;8527;49.740;6.604;2023-08-12T23:52:50;99935.50;;;19.09;100.00
16821;BME280;8527;49.740;6.604;2023-08-12T23:57:51;99946.47;;;19.07;100.00
